Hozan Maru — JJ4010 — position and weather

sailwx.info

Track history (hours):
 
Tides and Currents Weather Stations Pressure Air Temp Water Temp Dewpoint Dewpoint Depression Visibility Wind Speed Wind Dir Waves Ship Positions

Hozan Maru

Last reported at 2015-May-27 16:10 UTC. Time now 2015-May-28 00:06 UTC.
Position N 34°39' E 135°26'.

Length 38 m; draft 3.6 m.

Type: Tug. MMSI: 431401501.

Date/timePositionNaut miles runAvg speedWind from/ knotsBaromVisibWave heightAir tempDewpointWater temp
2015-May-27 16:10N 34°39' E 135°26'710.8
2015-May-27 15:33N 34°39' E 135°18'0 0.1
2015-May-27 14:33N 34°39' E 135°18'0 0.2
2015-May-27 13:33N 34°39' E 135°18'0 0.1
2015-May-27 12:33N 34°39' E 135°17'4 3.7
2015-May-27 11:33N 34°43' E 135°18'0 0.0
2015-May-27 04:15N 34°43' E 135°18'3 4.6
2015-May-27 03:33N 34°40' E 135°18'0 0.1
2015-May-27 02:33N 34°40' E 135°18'0 0.2
2015-May-27 01:33N 34°40' E 135°18'0 0.2
2015-May-27 00:33N 34°40' E 135°18'0 0.0
2015-May-26 23:33N 34°40' E 135°18'0 0.0
2015-May-26 22:33N 34°40' E 135°18'0 0.2
2015-May-26 21:33N 34°40' E 135°18'1 0.0
2015-May-26 10:23N 34°40' E 135°18'0 0.6
2015-May-26 09:33N 34°40' E 135°18'0 0.1
2015-May-26 08:33N 34°40' E 135°18'0 0.2
2015-May-26 07:33N 34°40' E 135°17'6 5.6
2015-May-26 06:33N 34°39' E 135°24'1 0.0
2015-May-25 05:32N 34°39' E 135°25'1 1.0
2015-May-25 04:33N 34°38' E 135°24'1 0.0
2015-May-23 07:14N 34°39' E 135°24'5 7.1
2015-May-23 06:31N 34°33' E 135°25'1 1.0
2015-May-23 05:31N 34°33' E 135°25'1 1.4
2015-May-23 04:33N 34°33' E 135°27'0 0.0
2015-May-23 03:33N 34°33' E 135°27'0 0.0
2015-May-23 02:33N 34°33' E 135°27'0 0.0
2015-May-23 01:33N 34°33' E 135°27'1 0.7
2015-May-23 00:33N 34°34' E 135°26'1 0.8
2015-May-22 23:30N 34°33' E 135°25'6 6.2
2015-May-22 22:33N 34°39' E 135°24'2 0.1
2015-May-22 09:21N 34°39' E 135°26'911.2
2015-May-22 08:33N 34°31' E 135°23'0 0.1
2015-May-22 07:30N 34°31' E 135°23'1 0.7
2015-May-22 06:33N 34°31' E 135°24'0 0.0
2015-May-22 05:33N 34°31' E 135°24'0 0.0
2015-May-22 04:33N 34°31' E 135°24'0 0.0
2015-May-22 03:33N 34°31' E 135°24'0 0.0
2015-May-22 02:33N 34°31' E 135°24'1 0.9
2015-May-22 01:29N 34°32' E 135°24'1 1.6
2015-May-22 00:33N 34°33' E 135°25'1 1.4
2015-May-21 23:33N 34°33' E 135°24'3 3.3
2015-May-21 22:33N 34°34' E 135°20'6 0.4
2015-May-21 09:33N 34°39' E 135°24'2 2.2
2015-May-21 08:28N 34°38' E 135°27'0 0.0
2015-May-21 07:32N 34°38' E 135°27'0 0.0
2015-May-21 06:33N 34°38' E 135°27'0 0.0
2015-May-21 05:33N 34°38' E 135°27'0 0.0
2015-May-21 04:18N 34°38' E 135°27'0 0.0
2015-May-21 03:31N 34°38' E 135°27'0 0.0
2015-May-21 02:34N 34°38' E 135°27'3 2.7
2015-May-21 01:33N 34°38' E 135°24'1 0.5
2015-May-20 23:33N 34°37' E 135°24'2 0.1
2015-May-20 05:33N 34°39' E 135°24'2 1.9
2015-May-20 04:33N 34°37' E 135°23'5 2.5
2015-May-20 02:33N 34°33' E 135°27'0 0.0
2015-May-20 01:32N 34°33' E 135°27'7 6.9
2015-May-20 00:33N 34°37' E 135°20'4 3.6
2015-May-19 23:33N 34°40' E 135°18'0 0.1
2015-May-19 22:33N 34°40' E 135°18'0 0.1
2015-May-19 21:33N 34°40' E 135°18'6 5.5
2015-May-19 20:33N 34°39' E 135°24'  
Track history (hours):
 
Tides and Currents Weather Stations Pressure Air Temp Water Temp Dewpoint Dewpoint Depression Visibility Wind Speed Wind Dir Waves Ship Positions

Hozan Maru

Last reported at 2015-May-27 16:10 UTC. Time now 2015-May-28 00:06 UTC.
Position N 34°39' E 135°26'.

Length 38 m; draft 3.6 m.

Type: Tug. MMSI: 431401501.

Date/timePositionNaut miles runAvg speedWind from/ knotsBaromVisibWave heightAir tempDewpointWater temp
2015-May-27 16:10N 34°39' E 135°26'710.8
2015-May-27 15:33N 34°39' E 135°18'0 0.1
2015-May-27 14:33N 34°39' E 135°18'0 0.2
2015-May-27 13:33N 34°39' E 135°18'0 0.1
2015-May-27 12:33N 34°39' E 135°17'4 3.7
2015-May-27 11:33N 34°43' E 135°18'0 0.0
2015-May-27 04:15N 34°43' E 135°18'3 4.6
2015-May-27 03:33N 34°40' E 135°18'0 0.1
2015-May-27 02:33N 34°40' E 135°18'0 0.2
2015-May-27 01:33N 34°40' E 135°18'0 0.2
2015-May-27 00:33N 34°40' E 135°18'0 0.0
2015-May-26 23:33N 34°40' E 135°18'0 0.0
2015-May-26 22:33N 34°40' E 135°18'0 0.2
2015-May-26 21:33N 34°40' E 135°18'1 0.0
2015-May-26 10:23N 34°40' E 135°18'0 0.6
2015-May-26 09:33N 34°40' E 135°18'0 0.1
2015-May-26 08:33N 34°40' E 135°18'0 0.2
2015-May-26 07:33N 34°40' E 135°17'6 5.6
2015-May-26 06:33N 34°39' E 135°24'1 0.0
2015-May-25 05:32N 34°39' E 135°25'1 1.0
2015-May-25 04:33N 34°38' E 135°24'1 0.0
2015-May-23 07:14N 34°39' E 135°24'5 7.1
2015-May-23 06:31N 34°33' E 135°25'1 1.0
2015-May-23 05:31N 34°33' E 135°25'1 1.4
2015-May-23 04:33N 34°33' E 135°27'0 0.0
2015-May-23 03:33N 34°33' E 135°27'0 0.0
2015-May-23 02:33N 34°33' E 135°27'0 0.0
2015-May-23 01:33N 34°33' E 135°27'1 0.7
2015-May-23 00:33N 34°34' E 135°26'1 0.8
2015-May-22 23:30N 34°33' E 135°25'6 6.2
2015-May-22 22:33N 34°39' E 135°24'2 0.1
2015-May-22 09:21N 34°39' E 135°26'911.2
2015-May-22 08:33N 34°31' E 135°23'0 0.1
2015-May-22 07:30N 34°31' E 135°23'1 0.7
2015-May-22 06:33N 34°31' E 135°24'0 0.0
2015-May-22 05:33N 34°31' E 135°24'0 0.0
2015-May-22 04:33N 34°31' E 135°24'0 0.0
2015-May-22 03:33N 34°31' E 135°24'0 0.0
2015-May-22 02:33N 34°31' E 135°24'1 0.9
2015-May-22 01:29N 34°32' E 135°24'1 1.6
2015-May-22 00:33N 34°33' E 135°25'1 1.4
2015-May-21 23:33N 34°33' E 135°24'3 3.3
2015-May-21 22:33N 34°34' E 135°20'6 0.4
2015-May-21 09:33N 34°39' E 135°24'2 2.2
2015-May-21 08:28N 34°38' E 135°27'0 0.0
2015-May-21 07:32N 34°38' E 135°27'0 0.0
2015-May-21 06:33N 34°38' E 135°27'0 0.0
2015-May-21 05:33N 34°38' E 135°27'0 0.0
2015-May-21 04:18N 34°38' E 135°27'0 0.0
2015-May-21 03:31N 34°38' E 135°27'0 0.0
2015-May-21 02:34N 34°38' E 135°27'3 2.7
2015-May-21 01:33N 34°38' E 135°24'1 0.5
2015-May-20 23:33N 34°37' E 135°24'2 0.1
2015-May-20 05:33N 34°39' E 135°24'2 1.9
2015-May-20 04:33N 34°37' E 135°23'5 2.5
2015-May-20 02:33N 34°33' E 135°27'0 0.0
2015-May-20 01:32N 34°33' E 135°27'7 6.9
2015-May-20 00:33N 34°37' E 135°20'4 3.6
2015-May-19 23:33N 34°40' E 135°18'0 0.1
2015-May-19 22:33N 34°40' E 135°18'0 0.1
2015-May-19 21:33N 34°40' E 135°18'6 5.5
2015-May-19 20:33N 34°39' E 135°24'  

Dump ship's entire track history